Time;durP1;ratioP1;P1;durP2;ratioP2;P2;SDS_P1;SDS_P2;PMS_P1;PMS_P2;Temp;Humidity;BMP_temperature;BMP_pressure;BME280_temperature;BME280_humidity;BME280_pressure;Samples;Min_cycle;Max_cycle;Signal;HPM_P1;HPM_P2
2023/04/04 00:03:03;;;;;;;4.70;1.50;;;;;;;9.83;34.86;100935.89;143798;1273;110817;-74
2023/04/04 00:06:26;;;;;;;2.00;1.00;;;;;;;9.80;34.88;100941.02;143741;1274;97007;-73
2023/04/04 00:09:51;;;;;;;2.90;1.30;;;;;;;9.77;35.02;100936.38;143620;1267;97484;-75
2023/04/04 00:13:33;;;;;;;2.50;1.50;;;;;;;9.74;34.99;100934.36;143931;1273;109891;-75
2023/04/04 00:16:58;;;;;;;1.60;1.50;;;;;;;9.72;35.08;100933.40;143766;1272;110252;-71
2023/04/04 00:20:38;;;;;;;1.90;0.90;;;;;;;9.68;35.18;100927.93;143664;1267;108436;-77
2023/04/04 00:24:00;;;;;;;2.60;1.60;;;;;;;9.65;34.95;100924.16;143774;1272;109945;-72
2023/04/04 00:27:27;;;;;;;1.40;1.30;;;;;;;9.62;35.17;100921.27;143762;1273;110374;-80
2023/04/04 00:30:49;;;;;;;2.50;1.60;;;;;;;9.58;35.20;100918.70;143745;1280;97884;-73
2023/04/04 00:34:18;;;;;;;3.40;1.40;;;;;;;9.55;35.05;100923.96;143749;1267;96593;-76
2023/04/04 00:37:42;;;;;;;4.50;1.30;;;;;;;9.51;35.14;100919.45;143730;1271;102466;-71
2023/04/04 00:41:10;;;;;;;4.20;2.30;;;;;;;9.47;35.24;100920.36;143739;1275;102747;-74
2023/04/04 00:44:44;;;;;;;2.60;1.60;;;;;;;9.42;35.42;100921.77;143822;1281;103173;-73
2023/04/04 00:48:19;;;;;;;3.00;1.10;;;;;;;9.39;35.37;100918.88;143491;1273;102123;-75
2023/04/04 00:51:43;;;;;;;2.60;1.00;;;;;;;9.36;35.35;100908.17;143479;1285;102520;-72
2023/04/04 00:55:11;;;;;;;4.00;1.00;;;;;;;9.32;35.49;100905.93;143726;1273;96578;-74
2023/04/04 00:59:00;;;;;;;2.70;1.30;;;;;;;9.27;35.50;100899.86;143579;1273;103242;-79
2023/04/04 01:02:55;;;;;;;1.90;1.20;;;;;;;9.22;35.36;100894.82;143507;1270;102609;-74
2023/04/04 01:06:47;;;;;;;4.50;1.40;;;;;;;9.18;35.48;100891.54;143308;1269;101615;-74
2023/04/04 01:10:35;;;;;;;1.60;1.20;;;;;;;9.14;35.54;100880.45;143150;1273;103097;-74
2023/04/04 01:14:03;;;;;;;4.90;1.30;;;;;;;9.10;35.85;100878.06;142914;1284;104621;-72
2023/04/04 01:17:39;;;;;;;2.90;1.30;;;;;;;9.06;35.72;100872.20;143052;1275;103154;-73
2023/04/04 01:21:17;;;;;;;2.60;1.20;;;;;;;9.03;35.80;100868.09;143173;1277;102356;-74
2023/04/04 01:25:01;;;;;;;2.30;1.00;;;;;;;8.98;35.74;100865.13;143068;1273;103307;-73
2023/04/04 01:28:30;;;;;;;2.80;1.20;;;;;;;8.95;35.88;100861.20;143100;1279;102899;-73
2023/04/04 01:32:29;;;;;;;3.20;1.30;;;;;;;8.91;35.80;100859.34;143137;1273;101019;-73
2023/04/04 01:36:25;;;;;;;2.90;1.30;;;;;;;8.88;35.80;100864.77;143178;1276;102391;-75
2023/04/04 01:40:14;;;;;;;2.20;1.40;;;;;;;8.85;36.04;100859.77;143052;1277;102221;-73
2023/04/04 01:43:57;;;;;;;2.80;1.00;;;;;;;8.82;35.96;100857.76;143295;1274;102916;-71
2023/04/04 01:47:20;;;;;;;2.30;1.50;;;;;;;8.79;35.98;100853.14;143328;1274;103191;-72
2023/04/04 01:50:51;;;;;;;1.90;1.40;;;;;;;8.76;35.95;100858.77;143710;1267;101348;-75
2023/04/04 01:54:27;;;;;;;1.80;1.20;;;;;;;8.73;36.06;100858.45;143623;1273;102084;-74
2023/04/04 01:58:03;;;;;;;1.60;1.30;;;;;;;8.70;36.14;100855.06;143717;1267;104017;-72
2023/04/04 02:01:25;;;;;;;2.30;1.10;;;;;;;8.68;36.22;100854.97;143671;1273;103265;-73
2023/04/04 02:04:51;;;;;;;3.50;1.30;;;;;;;8.65;36.25;100857.80;143516;1273;103166;-75
2023/04/04 02:08:22;;;;;;;4.80;2.10;;;;;;;8.62;36.24;100854.39;143733;1270;102520;-72
2023/04/04 02:12:07;;;;;;;2.50;1.30;;;;;;;8.60;36.40;100854.30;143727;1281;103194;-72
2023/04/04 02:16:07;;;;;;;2.70;1.20;;;;;;;8.57;36.35;100857.30;143244;1274;103394;-75
2023/04/04 02:19:33;;;;;;;;;;;;;;;8.54;36.42;100860.48;142770;1280;102837;-73
2023/04/04 02:23:03;;;;;;;1.90;1.10;;;;;;;8.51;36.37;100862.29;142522;1280;101544;-72
2023/04/04 02:26:27;;;;;;;1.50;1.10;;;;;;;8.48;36.47;100855.08;142294;1283;104882;-82
2023/04/04 02:29:52;;;;;;;4.50;1.70;;;;;;;8.46;36.44;100857.42;142125;1280;98150;-76
2023/04/04 02:33:21;;;;;;;1.50;1.20;;;;;;;8.44;36.51;100857.67;142184;1283;102959;-72
2023/04/04 02:37:02;;;;;;;3.40;0.90;;;;;;;8.41;36.46;100858.94;142333;1285;103201;-73
2023/04/04 02:40:30;;;;;;;1.80;1.20;;;;;;;8.38;36.64;100854.14;142005;1283;254362;-72
2023/04/04 02:44:15;;;;;;;2.10;1.10;;;;;;;8.35;36.63;100856.25;142028;1286;103671;-81
2023/04/04 02:47:49;;;;;;;3.30;1.40;;;;;;;8.32;36.73;100856.14;142324;1285;103874;-75
2023/04/04 02:51:18;;;;;;;1.80;1.00;;;;;;;8.30;36.85;100860.73;142191;1283;104138;-73
2023/04/04 02:54:45;;;;;;;2.10;1.20;;;;;;;8.28;36.92;100861.68;142168;1279;103380;-72
2023/04/04 02:58:31;;;;;;;1.70;1.20;;;;;;;8.26;36.68;100863.67;143464;1267;102654;-74
2023/04/04 03:01:56;;;;;;;3.10;0.90;;;;;;;8.23;36.84;100863.40;143504;1277;103078;-72
2023/04/04 03:05:34;;;;;;;2.50;1.20;;;;;;;8.21;36.77;100867.11;143450;1276;104157;-79
2023/04/04 03:08:58;;;;;;;2.30;1.10;;;;;;;8.20;36.84;100868.77;143213;1273;103191;-76
2023/04/04 03:12:31;;;;;;;3.70;1.30;;;;;;;8.17;36.88;100868.35;143298;1268;97018;-72
2023/04/04 03:16:03;;;;;;;4.30;1.40;;;;;;;8.16;36.96;100865.14;143492;1268;103220;-75
2023/04/04 03:19:51;;;;;;;1.50;1.10;;;;;;;8.13;36.95;100867.29;143234;1271;104538;-71
2023/04/04 03:23:12;;;;;;;3.30;1.40;;;;;;;8.10;36.93;100864.94;143151;1276;103163;-82
2023/04/04 03:26:49;;;;;;;2.10;1.20;;;;;;;8.10;37.02;100864.89;143429;1274;96656;-81
2023/04/04 03:30:23;;;;;;;4.10;1.50;;;;;;;8.08;37.05;100861.89;143296;1270;105440;-82
2023/04/04 03:34:06;;;;;;;5.30;1.90;;;;;;;8.05;37.10;100859.34;143306;1269;103456;-75
2023/04/04 03:37:35;;;;;;;2.60;1.40;;;;;;;8.03;36.95;100856.88;143414;1276;101394;-73
2023/04/04 03:41:11;;;;;;;3.30;1.30;;;;;;;8.02;37.14;100855.41;143197;1269;102555;-73
2023/04/04 03:44:48;;;;;;;3.00;1.90;;;;;;;8.00;36.97;100854.11;143661;1267;103223;-77
2023/04/04 03:48:33;;;;;;;2.40;1.20;;;;;;;7.97;37.07;100855.93;143659;1274;103300;-78
2023/04/04 03:52:11;;;;;;;2.60;1.00;;;;;;;7.95;37.11;100852.37;143621;1267;102187;-74
2023/04/04 03:55:32;;;;;;;3.20;1.60;;;;;;;7.94;37.17;100852.65;143728;1272;97890;-75
2023/04/04 03:59:12;;;;;;;2.80;1.40;;;;;;;7.92;37.21;100854.30;143718;1273;103252;-73
2023/04/04 04:02:40;;;;;;;2.30;1.00;;;;;;;7.91;37.16;100856.52;143712;1274;103740;-73
2023/04/04 04:06:18;;;;;;;6.00;1.60;;;;;;;7.89;37.38;100852.11;143512;1273;96859;-74
2023/04/04 04:09:57;;;;;;;3.00;1.00;;;;;;;7.88;37.43;100859.86;143366;1273;102165;-79
2023/04/04 04:13:21;;;;;;;1.80;1.00;;;;;;;7.87;37.28;100864.67;143390;1285;102889;-78
2023/04/04 04:16:59;;;;;;;1.80;1.10;;;;;;;7.88;37.24;100863.82;143486;1273;103292;-73
2023/04/04 04:20:24;;;;;;;4.10;1.00;;;;;;;7.86;37.40;100866.01;143130;1270;103144;-73
2023/04/04 04:23:48;;;;;;;1.20;0.90;;;;;;;7.86;37.34;100864.08;143197;1278;97108;-77
2023/04/04 04:27:16;;;;;;;5.50;1.10;;;;;;;7.86;37.26;100860.98;143613;1271;101272;-74
2023/04/04 04:30:48;;;;;;;3.30;1.30;;;;;;;7.86;37.43;100859.08;143468;1276;102991;-76
2023/04/04 04:34:24;;;;;;;2.20;1.20;;;;;;;7.87;37.40;100854.80;143434;1276;102617;-74
2023/04/04 04:37:51;;;;;;;3.70;1.40;;;;;;;7.88;37.36;100855.00;143489;1273;104182;-76
2023/04/04 04:41:19;;;;;;;5.50;1.20;;;;;;;7.89;37.48;100849.70;143539;1267;101625;-72
2023/04/04 04:44:47;;;;;;;2.70;1.10;;;;;;;7.91;37.35;100848.03;143522;1272;104561;-75
2023/04/04 04:48:26;;;;;;;5.20;1.30;;;;;;;7.93;37.51;100847.05;143554;1270;103203;-74
2023/04/04 04:51:52;;;;;;;4.00;1.20;;;;;;;7.94;37.49;100846.45;143540;1267;103114;-75
2023/04/04 04:55:15;;;;;;;1.80;1.10;;;;;;;7.98;37.31;100849.89;143745;1271;97435;-75
2023/04/04 04:58:44;;;;;;;4.70;1.00;;;;;;;8.01;37.40;100851.56;143761;1282;104189;-74
2023/04/04 05:02:12;;;;;;;1.50;1.00;;;;;;;8.03;37.41;100854.81;143753;1267;103146;-75
2023/04/04 05:05:43;;;;;;;4.90;1.30;;;;;;;8.06;37.29;100850.57;143911;1267;101981;-73
2023/04/04 05:09:10;;;;;;;4.80;1.70;;;;;;;8.11;37.44;100848.13;143854;1273;103261;-72
2023/04/04 05:12:45;;;;;;;4.20;1.60;;;;;;;8.16;37.39;100849.23;143558;1270;103289;-72
2023/04/04 05:16:11;;;;;;;3.60;1.20;;;;;;;8.22;37.30;100849.16;143584;1270;103223;-73
2023/04/04 05:19:35;;;;;;;1.80;1.10;;;;;;;8.28;37.22;100843.86;143531;1270;102106;-76
2023/04/04 05:23:00;;;;;;;3.90;1.30;;;;;;;8.34;37.14;100847.55;143771;1267;96679;-73
2023/04/04 05:26:28;;;;;;;3.40;1.40;;;;;;;8.41;37.16;100842.63;144059;1273;103461;-73
2023/04/04 05:30:00;;;;;;;1.90;1.30;;;;;;;8.48;37.14;100842.93;143942;1267;96781;-76
2023/04/04 05:33:44;;;;;;;1.70;1.30;;;;;;;8.55;37.11;100844.95;144261;1267;101904;-76
2023/04/04 05:37:22;;;;;;;7.70;1.80;;;;;;;8.62;37.13;100849.70;143878;1272;102742;-74
2023/04/04 05:40:55;;;;;;;1.90;0.90;;;;;;;8.68;37.02;100851.85;144299;1270;101633;-80
2023/04/04 05:44:20;;;;;;;1.60;1.20;;;;;;;8.72;37.03;100847.88;143751;1267;96618;-71
2023/04/04 05:47:42;;;;;;;2.00;1.60;;;;;;;8.78;37.08;100854.32;143829;1267;103446;-72
2023/04/04 05:51:05;;;;;;;4.40;1.40;;;;;;;8.83;37.05;100857.81;143774;1273;97861;-75
2023/04/04 05:54:33;;;;;;;3.10;1.30;;;;;;;8.89;37.01;100850.56;143926;1273;102625;-75
2023/04/04 05:58:01;;;;;;;2.90;1.60;;;;;;;8.94;36.80;100853.22;143761;1270;101802;-75
2023/04/04 06:01:35;;;;;;;1.60;1.00;;;;;;;9.01;36.88;100853.30;143844;1267;102338;-71
2023/04/04 06:05:07;;;;;;;2.90;1.00;;;;;;;9.10;37.01;100851.02;143883;1274;103460;-80
2023/04/04 06:08:32;;;;;;;1.70;1.10;;;;;;;9.18;36.91;100847.34;143845;1267;103426;-71
2023/04/04 06:12:11;;;;;;;2.50;1.40;;;;;;;9.27;36.84;100850.61;143896;1273;102415;-73
2023/04/04 06:15:33;;;;;;;4.00;1.60;;;;;;;9.35;36.77;100845.88;143683;1267;97894;-72
2023/04/04 06:18:57;;;;;;;2.00;1.40;;;;;;;9.42;36.81;100844.91;143890;1272;96679;-71
2023/04/04 06:22:20;;;;;;;2.00;1.20;;;;;;;9.50;36.64;100844.12;143881;1273;108050;-81
2023/04/04 06:25:52;;;;;;;2.50;1.30;;;;;;;9.56;36.81;100842.09;143786;1272;108498;-73
2023/04/04 06:29:14;;;;;;;3.20;1.30;;;;;;;9.62;36.67;100842.48;143898;1271;107034;-74
2023/04/04 06:32:43;;;;;;;2.50;1.30;;;;;;;9.68;36.62;100837.48;143762;1267;96587;-72
2023/04/04 06:36:12;;;;;;;1.90;1.20;;;;;;;9.75;36.80;100834.23;143763;1270;106800;-76
2023/04/04 06:39:34;;;;;;;3.00;1.50;;;;;;;9.81;36.77;100833.92;143832;1267;107392;-70
2023/04/04 06:43:03;;;;;;;6.30;2.80;;;;;;;9.86;36.66;100831.50;143846;1282;106629;-75
2023/04/04 06:46:32;;;;;;;1.80;1.20;;;;;;;9.95;36.86;100830.21;143925;1267;107725;-76
2023/04/04 06:49:54;;;;;;;3.60;1.50;;;;;;;10.04;36.75;100828.09;143635;1273;97236;-73
2023/04/04 06:53:18;;;;;;;2.80;1.80;;;;;;;10.14;36.79;100828.25;143824;1270;96746;-75
2023/04/04 06:56:41;;;;;;;3.10;1.70;;;;;;;10.27;36.56;100824.88;143611;1267;96638;-71
2023/04/04 07:00:05;;;;;;;4.50;2.10;;;;;;;11.61;36.28;100822.25;143803;1267;96679;-73
2023/04/04 07:03:35;;;;;;;3.10;2.10;;;;;;;14.71;34.65;100823.15;143819;1270;96764;-80
2023/04/04 07:06:58;;;;;;;3.80;1.90;;;;;;;17.02;32.51;100818.69;143529;1276;96626;-71
2023/04/04 07:10:27;;;;;;;2.60;1.50;;;;;;;18.46;30.61;100824.58;143280;1276;96871;-76
2023/04/04 07:13:52;;;;;;;3.30;2.00;;;;;;;19.35;29.51;100825.68;143456;1270;97920;-73
2023/04/04 07:17:22;;;;;;;2.20;1.40;;;;;;;21.09;28.28;100825.09;143391;1276;96736;-72
2023/04/04 07:20:48;;;;;;;2.50;1.70;;;;;;;22.06;27.08;100826.36;143468;1276;97591;-72
2023/04/04 07:24:10;;;;;;;2.50;1.60;;;;;;;23.58;25.73;100832.84;143312;1270;96782;-80
2023/04/04 07:27:32;;;;;;;3.40;2.00;;;;;;;24.76;24.77;100842.66;143644;1276;97374;-73
2023/04/04 07:30:53;;;;;;;2.60;1.90;;;;;;;26.17;23.45;100843.24;143498;1273;96704;-75
2023/04/04 07:34:19;;;;;;;3.10;1.70;;;;;;;26.00;22.76;100843.95;143672;1270;96785;-72
2023/04/04 07:37:53;;;;;;;2.90;2.20;;;;;;;24.51;23.01;100840.29;143630;1273;103414;-72
2023/04/04 07:41:27;;;;;;;3.90;1.90;;;;;;;24.57;22.93;100835.02;143771;1272;111337;-72
2023/04/04 07:45:22;;;;;;;2.60;1.40;;;;;;;24.69;23.10;100834.71;143558;1276;108188;-73
2023/04/04 07:48:50;;;;;;;3.50;1.90;;;;;;;25.35;22.70;100829.82;143658;1267;102080;-72
2023/04/04 07:52:44;;;;;;;;;;;;;;;;;;;;;
2023/04/04 07:56:12;;;;;;;3.40;1.80;;;;;;;25.28;22.59;100825.39;143653;1273;108775;-72
2023/04/04 07:59:38;;;;;;;2.20;1.70;;;;;;;25.17;22.71;100827.84;143873;1267;96638;-82
2023/04/04 08:03:10;;;;;;;2.40;1.40;;;;;;;24.77;22.48;100822.73;143842;1267;97236;-73
2023/04/04 08:06:43;;;;;;;2.80;1.70;;;;;;;23.47;23.04;100813.38;143722;1269;102689;-73
2023/04/04 08:10:16;;;;;;;2.20;1.40;;;;;;;22.38;23.78;100806.72;143852;1267;102812;-74
2023/04/04 08:13:38;;;;;;;1.50;1.40;;;;;;;21.34;24.42;100803.75;143877;1272;102405;-81
2023/04/04 08:17:03;;;;;;;1.80;1.50;;;;;;;20.46;25.11;100804.07;143860;1272;102987;-75
2023/04/04 08:20:27;;;;;;;2.70;1.70;;;;;;;19.69;25.78;100801.71;143778;1267;96666;-78
2023/04/04 08:23:48;;;;;;;3.40;1.80;;;;;;;19.44;26.53;100803.78;143731;1267;98021;-75
2023/04/04 08:27:22;;;;;;;3.30;1.80;;;;;;;21.58;26.54;100803.13;143897;1273;96612;-76
2023/04/04 08:30:44;;;;;;;3.90;1.80;;;;;;;24.18;25.42;100807.41;143867;1267;107740;-73
2023/04/04 08:34:07;;;;;;;2.30;1.40;;;;;;;25.13;24.32;100805.20;143913;1272;96766;-72
2023/04/04 08:37:31;;;;;;;2.10;1.40;;;;;;;24.71;23.99;100804.79;143992;1267;99821;-73
2023/04/04 08:40:54;;;;;;;2.10;1.60;;;;;;;24.07;24.10;100796.70;143793;1267;96599;-74
2023/04/04 08:44:21;;;;;;;2.40;1.80;;;;;;;24.30;24.49;100797.54;143777;1267;108729;-81
2023/04/04 08:48:02;;;;;;;2.10;1.70;;;;;;;25.97;23.93;100796.65;143764;1273;107003;-73
2023/04/04 08:51:34;;;;;;;4.20;1.60;;;;;;;26.86;23.11;100794.29;143836;1267;99918;-74
2023/04/04 08:54:59;;;;;;;1.70;1.40;;;;;;;26.00;23.05;100792.46;143667;1275;99813;-73
2023/04/04 08:58:28;;;;;;;1.70;1.20;;;;;;;24.76;23.42;100797.49;143904;1272;100237;-72
2023/04/04 09:02:15;;;;;;;2.90;2.20;;;;;;;23.55;23.91;100793.86;143860;1273;108430;-78
2023/04/04 09:05:42;;;;;;;1.80;1.40;;;;;;;22.42;24.68;100792.99;143775;1273;108273;-74
2023/04/04 09:09:08;;;;;;;2.50;1.60;;;;;;;21.59;25.16;100785.72;143791;1267;107690;-77
2023/04/04 09:12:41;;;;;;;2.40;1.20;;;;;;;21.48;25.70;100783.05;144111;1267;108489;-71
2023/04/04 09:16:03;;;;;;;2.20;1.50;;;;;;;21.21;25.97;100782.70;143849;1267;106854;-75
2023/04/04 09:19:28;;;;;;;2.80;1.30;;;;;;;20.73;26.30;100788.09;143837;1267;96636;-71
2023/04/04 09:22:51;;;;;;;3.20;1.70;;;;;;;20.28;26.56;100786.23;143733;1268;107864;-72
2023/04/04 09:26:16;;;;;;;3.30;1.10;;;;;;;20.31;26.08;100780.91;143637;1267;96618;-73
2023/04/04 09:29:38;;;;;;;4.20;1.10;;;;;;;19.95;26.00;100777.70;143949;1267;96602;-72
2023/04/04 09:33:03;;;;;;;3.10;1.40;;;;;;;19.26;25.87;100776.41;144058;1269;96586;-73
2023/04/04 09:36:34;;;;;;;3.10;1.50;;;;;;;17.91;23.77;100777.80;143893;1271;108201;-72
2023/04/04 09:40:03;;;;;;;2.20;1.10;;;;;;;16.66;23.74;100783.25;143875;1267;106809;-71
2023/04/04 09:43:25;;;;;;;1.80;1.20;;;;;;;16.04;24.02;100781.82;143966;1286;96615;-71
2023/04/04 09:46:53;;;;;;;3.90;1.40;;;;;;;16.75;24.16;100778.72;143863;1267;107561;-72
2023/04/04 09:50:24;;;;;;;1.40;1.00;;;;;;;18.16;23.36;100771.45;143856;1268;108312;-72
2023/04/04 09:53:59;;;;;;;2.70;1.00;;;;;;;18.49;22.76;100768.79;143929;1268;108701;-74
2023/04/04 09:57:31;;;;;;;4.30;1.10;;;;;;;18.15;28.12;100774.83;143667;1267;108517;-72
2023/04/04 10:01:05;;;;;;;4.70;0.90;;;;;;;17.96;25.08;100772.73;143832;1270;108513;-73
2023/04/04 10:04:31;;;;;;;2.90;1.20;;;;;;;17.08;23.75;100766.23;143695;1271;108430;-75
2023/04/04 10:07:53;;;;;;;2.00;1.30;;;;;;;16.70;23.26;100768.37;143749;1268;109274;-72
2023/04/04 10:11:40;;;;;;;4.00;0.70;;;;;;;17.47;22.70;100770.20;143851;1270;108300;-72
2023/04/04 10:15:07;;;;;;;3.50;1.10;;;;;;;17.24;22.46;100764.89;143682;1268;108399;-74
2023/04/04 10:18:37;;;;;;;1.60;0.90;;;;;;;16.57;22.58;100772.33;143837;1270;108982;-74
2023/04/04 10:22:00;;;;;;;1.50;0.70;;;;;;;15.83;22.74;100771.10;143818;1268;106358;-72
2023/04/04 10:25:23;;;;;;;1.70;0.90;;;;;;;15.15;23.16;100765.34;143819;1273;96660;-72
2023/04/04 10:28:46;;;;;;;2.20;0.90;;;;;;;14.56;23.41;100763.03;143608;1273;96617;-73
2023/04/04 10:32:08;;;;;;;1.00;0.80;;;;;;;14.46;23.73;100763.95;143823;1273;96603;-75
2023/04/04 10:35:32;;;;;;;1.50;0.80;;;;;;;14.90;23.70;100761.39;143671;1273;96676;-73
2023/04/04 10:39:10;;;;;;;1.60;0.70;;;;;;;14.87;23.73;100761.86;143766;1273;97871;-72
2023/04/04 10:42:41;;;;;;;3.90;0.80;;;;;;;14.81;23.78;100758.12;143768;1272;96749;-71
2023/04/04 10:46:18;;;;;;;2.40;1.00;;;;;;;14.70;23.67;100756.06;143706;1273;97985;-71
2023/04/04 10:49:44;;;;;;;1.70;0.70;;;;;;;14.33;23.65;100753.79;143654;1273;97371;-74
2023/04/04 10:53:06;;;;;;;4.10;0.90;;;;;;;14.04;23.90;100752.14;143239;1273;96714;-76
2023/04/04 10:56:28;;;;;;;3.00;1.00;;;;;;;13.69;24.17;100752.09;143171;1273;96706;-73
2023/04/04 11:00:17;;;;;;;1.50;0.70;;;;;;;13.44;24.49;100754.98;143424;1274;96773;-76
2023/04/04 11:04:20;;;;;;;6.40;1.00;;;;;;;13.20;24.60;100750.15;143492;1275;96661;-71
2023/04/04 11:07:45;;;;;;;2.30;0.60;;;;;;;12.90;24.90;100749.89;143436;1276;96814;-71
2023/04/04 11:11:32;;;;;;;3.70;0.90;;;;;;;12.69;25.15;100752.09;143411;1275;96820;-72
2023/04/04 11:15:04;;;;;;;2.00;0.90;;;;;;;12.67;27.24;100747.15;143497;1276;96694;-73
2023/04/04 11:18:34;;;;;;;2.10;0.90;;;;;;;13.31;28.46;100745.10;143753;1272;96605;-73
2023/04/04 11:21:57;;;;;;;17.90;2.40;;;;;;;14.25;28.49;100744.39;143215;1276;97786;-74
2023/04/04 11:25:31;;;;;;;1.80;0.70;;;;;;;14.73;28.50;100742.97;143566;1273;96755;-75
2023/04/04 11:29:19;;;;;;;1.80;0.70;;;;;;;14.97;28.52;100739.23;143951;1272;96598;-71
2023/04/04 11:32:46;;;;;;;1.00;0.80;;;;;;;15.08;28.55;100741.29;143673;1267;96653;-72
2023/04/04 11:36:41;;;;;;;1.10;0.60;;;;;;;15.07;28.68;100740.41;143737;1273;96766;-74
2023/04/04 11:40:19;;;;;;;1.90;0.70;;;;;;;15.01;28.62;100747.34;143807;1272;97512;-75
2023/04/04 11:43:45;;;;;;;2.30;0.70;;;;;;;14.92;28.78;100744.61;143682;1271;96695;-72
2023/04/04 11:47:22;;;;;;;1.50;0.70;;;;;;;14.81;28.82;100744.84;143818;1277;96660;-75
2023/04/04 11:50:49;;;;;;;2.20;0.80;;;;;;;14.73;28.96;100746.13;143231;1294;98524;-73
2023/04/04 11:54:15;;;;;;;1.80;0.60;;;;;;;14.69;29.31;100738.56;143414;1277;97193;-75
2023/04/04 11:57:40;;;;;;;1.30;0.80;;;;;;;14.74;29.40;100744.39;143459;1276;96647;-71
2023/04/04 12:01:10;;;;;;;1.20;0.80;;;;;;;14.90;29.49;100740.38;143551;1276;96772;-71
2023/04/04 12:04:33;;;;;;;1.50;0.60;;;;;;;15.07;29.40;100733.75;143024;1276;96779;-70
2023/04/04 12:08:00;;;;;;;1.90;0.90;;;;;;;15.12;29.29;100734.33;142987;1276;97652;-71
2023/04/04 12:11:28;;;;;;;0.80;0.60;;;;;;;15.05;29.36;100725.16;143060;1274;97804;-72
2023/04/04 12:14:53;;;;;;;2.10;0.80;;;;;;;14.95;29.27;100730.48;142991;1279;96593;-73
2023/04/04 12:18:33;;;;;;;1.40;0.70;;;;;;;14.83;29.50;100733.48;142988;1276;96766;-73
2023/04/04 12:21:57;;;;;;;2.70;0.90;;;;;;;14.73;29.56;100737.55;143055;1273;97283;-77
2023/04/04 12:25:21;;;;;;;2.60;0.90;;;;;;;14.63;29.68;100734.98;142877;1277;96680;-75
2023/04/04 12:28:44;;;;;;;0.90;0.60;;;;;;;14.53;29.77;100738.16;143171;1273;96906;-71
2023/04/04 12:32:06;;;;;;;1.80;0.70;;;;;;;14.41;29.90;100740.27;143144;1276;98121;-74
2023/04/04 12:35:30;;;;;;;3.90;0.90;;;;;;;14.32;30.06;100739.96;142852;1292;96765;-71
2023/04/04 12:39:12;;;;;;;1.20;0.90;;;;;;;14.28;30.11;100731.33;143258;1276;96820;-75
2023/04/04 12:42:54;;;;;;;1.70;0.80;;;;;;;14.26;30.27;100729.02;143958;1273;96791;-80
2023/04/04 12:46:34;;;;;;;4.70;1.30;;;;;;;14.27;30.47;100725.39;143041;1279;96616;-74
2023/04/04 12:50:07;;;;;;;5.20;1.20;;;;;;;14.31;30.67;100728.23;142715;1281;98021;-74
2023/04/04 12:53:31;;;;;;;2.70;0.90;;;;;;;14.35;30.58;100724.42;142322;1276;96756;-72
2023/04/04 12:56:56;;;;;;;0.80;0.50;;;;;;;14.39;30.69;100717.50;142813;1277;97463;-80
2023/04/04 13:00:22;;;;;;;5.00;0.90;;;;;;;14.46;30.78;100720.02;142888;1282;96794;-71
2023/04/04 13:03:46;;;;;;;2.20;0.70;;;;;;;14.55;30.85;100715.81;142823;1282;96684;-76
2023/04/04 13:07:21;;;;;;;0.60;0.40;;;;;;;14.65;30.80;100709.98;142677;1285;96641;-79
2023/04/04 13:11:06;;;;;;;1.60;0.90;;;;;;;14.73;30.79;100710.25;142957;1280;97482;-77
2023/04/04 13:15:12;;;;;;;1.20;0.60;;;;;;;14.75;30.80;100710.46;142660;1281;96700;-79
2023/04/04 13:18:42;;;;;;;1.60;0.60;;;;;;;14.74;30.77;100712.89;143094;1274;96906;-78
2023/04/04 13:22:09;;;;;;;1.10;0.90;;;;;;;14.64;30.66;100712.95;142375;1279;96786;-73
2023/04/04 13:25:38;;;;;;;2.60;0.80;;;;;;;14.51;30.77;100714.35;142347;1277;96789;-74
2023/04/04 13:29:00;;;;;;;2.20;1.10;;;;;;;14.42;30.84;100710.54;142409;1295;96872;-76
2023/04/04 13:32:22;;;;;;;4.40;1.30;;;;;;;14.39;30.88;100711.38;142831;1277;96592;-80
2023/04/04 13:35:50;;;;;;;1.40;0.90;;;;;;;14.37;31.01;100705.39;143202;1272;109958;-74
2023/04/04 13:39:11;;;;;;;1.20;0.80;;;;;;;14.36;31.00;100705.38;143303;1267;97703;-74
2023/04/04 13:42:34;;;;;;;2.80;1.80;;;;;;;14.36;31.04;100702.07;143653;1272;96758;-71
2023/04/04 13:45:56;;;;;;;1.00;0.60;;;;;;;14.34;30.99;100700.47;143814;1267;103641;-72
2023/04/04 13:49:20;;;;;;;1.20;0.80;;;;;;;14.32;30.96;100699.73;143862;1273;97166;-72
2023/04/04 13:52:42;;;;;;;1.20;0.80;;;;;;;14.30;31.09;100700.75;143778;1267;102615;-73
2023/04/04 13:56:05;;;;;;;2.20;0.80;;;;;;;14.30;31.12;100696.21;143703;1273;96599;-75
2023/04/04 13:59:30;;;;;;;3.10;1.00;;;;;;;14.34;31.15;100695.77;143877;1268;103205;-73
2023/04/04 14:02:52;;;;;;;1.30;0.90;;;;;;;14.40;31.20;100691.27;143673;1273;96642;-74
2023/04/04 14:06:22;;;;;;;3.10;1.00;;;;;;;14.47;31.16;100691.73;143797;1267;102148;-70
2023/04/04 14:09:46;;;;;;;4.30;0.90;;;;;;;14.52;31.07;100693.58;143798;1272;103004;-72
2023/04/04 14:13:18;;;;;;;1.10;0.90;;;;;;;14.53;31.08;100694.10;143774;1273;102196;-78
2023/04/04 14:16:40;;;;;;;1.50;0.70;;;;;;;14.52;31.15;100696.54;143726;1273;96794;-74
2023/04/04 14:20:03;;;;;;;2.30;1.60;;;;;;;14.49;31.19;100697.52;143710;1268;96593;-78
2023/04/04 14:23:25;;;;;;;4.80;0.90;;;;;;;14.46;31.32;100692.04;143741;1273;108396;-73
2023/04/04 14:26:48;;;;;;;1.80;0.90;;;;;;;14.41;31.29;100693.04;143795;1273;96610;-74
2023/04/04 14:30:10;;;;;;;1.20;0.70;;;;;;;14.35;31.36;100694.02;143970;1273;97079;-71
2023/04/04 14:33:32;;;;;;;0.80;0.70;;;;;;;14.30;31.55;100694.64;143790;1273;96519;-74
2023/04/04 14:36:53;;;;;;;1.00;0.50;;;;;;;14.26;31.67;100692.84;143888;1268;97887;-75
2023/04/04 14:40:23;;;;;;;1.30;0.70;;;;;;;14.25;31.76;100684.61;139870;1271;5480405;-71
2023/04/04 14:43:54;;;;;;;1.80;1.30;;;;;;;14.27;31.96;100683.41;143990;1272;96686;-75
2023/04/04 14:47:18;;;;;;;1.00;0.60;;;;;;;14.34;32.02;100677.56;143850;1268;96719;-73
2023/04/04 14:50:47;;;;;;;3.00;1.20;;;;;;;14.48;31.97;100675.98;143913;1268;109361;-70
2023/04/04 14:54:09;;;;;;;3.70;1.30;;;;;;;14.66;31.96;100678.14;143999;1273;97885;-74
2023/04/04 14:57:31;;;;;;;2.30;1.00;;;;;;;14.85;31.88;100678.90;144015;1273;96659;-71
2023/04/04 15:01:04;;;;;;;2.40;0.70;;;;;;;14.92;31.86;100677.57;143805;1273;102253;-73
2023/04/04 15:04:26;;;;;;;0.90;0.70;;;;;;;14.83;31.77;100674.67;143888;1267;97495;-70
2023/04/04 15:07:48;;;;;;;1.60;0.90;;;;;;;14.71;31.94;100676.81;143901;1275;96673;-73
2023/04/04 15:11:12;;;;;;;3.50;0.90;;;;;;;14.57;32.03;100675.96;143819;1268;106326;-71
2023/04/04 15:14:33;;;;;;;1.10;1.00;;;;;;;14.43;32.07;100674.18;143937;1271;107979;-74
2023/04/04 15:17:55;;;;;;;1.40;0.70;;;;;;;14.30;32.29;100672.79;143913;1283;96678;-70
2023/04/04 15:21:27;;;;;;;2.00;0.80;;;;;;;14.17;32.38;100671.40;143877;1271;96640;-71
2023/04/04 15:24:49;;;;;;;1.30;0.90;;;;;;;14.05;32.50;100671.91;143797;1273;96692;-75
2023/04/04 15:28:13;;;;;;;2.00;0.80;;;;;;;13.93;32.68;100667.21;143666;1274;96603;-84
2023/04/04 15:31:35;;;;;;;1.20;0.90;;;;;;;13.82;32.89;100666.17;143790;1270;96687;-72
2023/04/04 15:34:57;;;;;;;1.40;1.00;;;;;;;13.71;32.77;100666.35;143957;1266;96595;-78
2023/04/04 15:38:19;;;;;;;4.40;0.80;;;;;;;13.60;33.01;100663.39;143890;1267;96596;-76
2023/04/04 15:41:43;;;;;;;2.10;1.00;;;;;;;13.50;33.11;100665.14;144048;1283;96639;-75
2023/04/04 15:45:06;;;;;;;1.20;0.80;;;;;;;13.40;33.22;100666.04;143816;1273;96640;-71
2023/04/04 15:48:28;;;;;;;4.10;1.20;;;;;;;13.35;34.09;100671.90;143670;1273;96676;-75
2023/04/04 15:51:52;;;;;;;4.70;1.50;;;;;;;13.42;34.88;100670.08;143504;1268;96782;-75
2023/04/04 15:55:15;;;;;;;3.50;1.20;;;;;;;13.38;35.06;100667.75;143744;1267;96631;-72
2023/04/04 15:58:42;;;;;;;1.60;1.00;;;;;;;13.31;35.17;100667.98;143659;1280;96676;-78
2023/04/04 16:02:05;;;;;;;2.30;1.10;;;;;;;13.24;34.98;100668.73;143695;1273;96618;-71
2023/04/04 16:05:35;;;;;;;2.60;1.50;;;;;;;13.16;34.91;100666.48;143721;1267;96621;-81